Time;durP1;ratioP1;P1;durP2;ratioP2;P2;SDS_P1;SDS_P2;PMS_P1;PMS_P2;Temp;Humidity;BMP_temperature;BMP_pressure;BME280_temperature;BME280_humidity;BME280_pressure;Samples;Min_cycle;Max_cycle;Signal;HPM_P1;HPM_P2
2022/10/28 00:01:08;;;;;;;11.15;6.40;;;;;;;20.59;45.46;102094.30;1731766;82;21097;-79
2022/10/28 00:03:38;;;;;;;10.85;6.60;;;;;;;20.59;45.44;102097.07;1718072;82;21023;-79
2022/10/28 00:06:08;;;;;;;16.85;6.58;;;;;;;20.59;45.44;102106.20;1721913;81;21167;-78
2022/10/28 00:08:34;;;;;;;10.60;6.03;;;;;;;20.59;45.43;102106.20;1721760;81;22758;-79
2022/10/28 00:11:16;;;;;;;12.07;6.58;;;;;;;20.59;45.45;102110.34;1719522;81;21112;-78
2022/10/28 00:13:43;;;;;;;13.85;7.75;;;;;;;20.60;45.44;102107.03;1720348;83;21584;-79
2022/10/28 00:16:19;;;;;;;9.98;6.12;;;;;;;20.59;45.43;102112.28;1720937;81;21001;-79
2022/10/28 00:18:45;;;;;;;13.83;6.83;;;;;;;20.58;45.41;102116.98;1722166;81;21041;-79
2022/10/28 00:21:16;;;;;;;11.93;6.80;;;;;;;20.57;45.40;102116.73;1712028;81;21625;-79
2022/10/28 00:23:42;;;;;;;10.58;6.95;;;;;;;20.58;45.40;102116.18;1716451;81;21037;-79
2022/10/28 00:26:17;;;;;;;12.82;6.05;;;;;;;20.57;45.39;102104.29;1714233;81;21088;-79
2022/10/28 00:28:53;;;;;;;12.68;6.12;;;;;;;20.57;45.42;102100.70;1713528;81;21033;-79
2022/10/28 00:31:22;;;;;;;10.93;6.33;;;;;;;20.57;45.40;102111.76;1710760;81;21053;-79
2022/10/28 00:33:48;;;;;;;9.80;6.53;;;;;;;20.57;45.40;102108.99;1717917;81;21647;-79
2022/10/28 00:36:19;;;;;;;13.43;7.33;;;;;;;20.56;45.40;102107.33;1695073;82;21059;-79
2022/10/28 00:38:47;;;;;;;;;;;;;;;20.57;45.38;102111.76;1697502;82;21182;-79
2022/10/28 00:41:20;;;;;;;10.58;6.87;;;;;;;20.56;45.37;102117.01;1652781;85;20728;-79
2022/10/28 00:43:49;;;;;;;12.05;7.28;;;;;;;20.55;45.39;102108.44;1665751;84;21067;-79
2022/10/28 00:46:36;;;;;;;13.55;7.20;;;;;;;20.54;45.38;102109.57;1700623;83;21956;-79
2022/10/28 00:49:24;;;;;;;12.73;6.92;;;;;;;20.54;45.38;102107.61;1695868;83;21543;-79
2022/10/28 00:52:00;;;;;;;13.05;6.87;;;;;;;20.53;45.34;102101.83;1694440;82;21082;-79
2022/10/28 00:54:26;;;;;;;12.45;6.55;;;;;;;20.54;45.35;102116.48;1700375;83;21071;-79
2022/10/28 00:56:55;;;;;;;10.18;6.80;;;;;;;20.53;45.36;102109.30;1696584;83;21514;-80
2022/10/28 00:59:26;;;;;;;12.47;6.35;;;;;;;20.53;45.38;102105.14;1661650;85;21188;-79
2022/10/28 01:01:52;;;;;;;14.53;6.75;;;;;;;20.53;45.39;102101.83;1660171;85;21037;-79
2022/10/28 01:04:19;;;;;;;12.20;6.40;;;;;;;20.53;45.39;102107.91;1658874;86;21101;-79
2022/10/28 01:06:45;;;;;;;10.65;6.40;;;;;;;20.52;45.39;102105.70;1659626;85;21433;-79
2022/10/28 01:09:12;;;;;;;12.70;6.83;;;;;;;20.53;45.35;102103.21;1659522;85;21183;-79
2022/10/28 01:12:08;;;;;;;11.53;6.65;;;;;;;20.53;45.35;102103.21;1658414;84;21105;-79
2022/10/28 01:15:01;;;;;;;11.78;6.70;;;;;;;20.53;45.35;102099.62;1658158;86;21085;-79
2022/10/28 01:18:00;;;;;;;9.85;6.83;;;;;;;20.51;45.33;102099.34;1664026;84;21072;-79
2022/10/28 01:20:32;;;;;;;11.35;6.25;;;;;;;20.52;45.34;102105.70;1691276;82;21037;-79
2022/10/28 01:23:25;;;;;;;12.53;6.92;;;;;;;20.51;45.36;102106.80;1698871;81;21594;-79
2022/10/28 01:26:36;;;;;;;11.78;6.92;;;;;;;20.52;45.34;102111.23;1716652;81;21240;-79
2022/10/28 01:29:39;;;;;;;13.40;7.40;;;;;;;20.50;45.30;102103.76;1690709;83;21132;-79
2022/10/28 01:32:43;;;;;;;12.95;6.58;;;;;;;20.50;45.27;102105.14;1690409;84;21029;-80
2022/10/28 01:35:40;;;;;;;13.62;7.25;;;;;;;20.49;45.27;102103.52;1689865;84;21200;-80
2022/10/28 01:38:17;;;;;;;10.45;6.08;;;;;;;20.48;45.27;102099.92;1690288;84;21176;-79
2022/10/28 01:40:55;;;;;;;15.23;6.70;;;;;;;20.46;45.26;102096.59;1689576;83;21825;-79
2022/10/28 01:43:32;;;;;;;14.13;7.03;;;;;;;20.46;45.28;102099.36;1690399;83;21080;-79
2022/10/28 01:46:23;;;;;;;11.60;6.53;;;;;;;20.48;45.30;102093.56;1692055;83;21166;-79
2022/10/28 01:49:07;;;;;;;12.47;6.85;;;;;;;20.47;45.31;102100.20;1698266;82;21075;-79
2022/10/28 01:51:40;;;;;;;13.88;7.17;;;;;;;20.46;45.31;102099.36;1688915;83;21179;-79
2022/10/28 01:54:07;;;;;;;12.55;6.90;;;;;;;20.46;45.30;102102.13;1700091;83;21365;-79
2022/10/28 01:56:39;;;;;;;11.25;7.05;;;;;;;20.47;45.30;102102.95;1657564;85;21137;-80
2022/10/28 01:59:10;;;;;;;12.50;7.17;;;;;;;20.47;45.32;102092.73;1684649;81;33237;-79
2022/10/28 02:01:42;;;;;;;12.63;6.60;;;;;;;20.47;45.30;102087.20;1702262;82;21049;-79
2022/10/28 02:04:09;;;;;;;12.55;6.95;;;;;;;20.47;45.31;102091.34;1713011;81;21576;-79
2022/10/28 02:06:35;;;;;;;11.35;6.70;;;;;;;20.47;45.30;102083.05;1707634;82;21153;-81
2022/10/28 02:09:25;;;;;;;11.65;6.92;;;;;;;20.47;45.28;102083.05;1654333;82;21151;-80
2022/10/28 02:12:28;;;;;;;12.40;6.58;;;;;;;20.48;45.30;102085.27;1713964;81;21663;-80
2022/10/28 02:15:24;;;;;;;10.78;7.33;;;;;;;20.48;45.25;102078.36;1700572;82;21080;-80
2022/10/28 02:18:25;;;;;;;12.45;7.12;;;;;;;20.47;45.26;102076.70;1711110;82;21045;-79
2022/10/28 02:21:02;;;;;;;10.35;6.67;;;;;;;20.47;45.25;102079.46;1711855;82;21190;-79
2022/10/28 02:23:43;;;;;;;10.85;6.67;;;;;;;20.46;45.23;102086.09;1704956;82;21881;-79
2022/10/28 02:26:33;;;;;;;13.18;7.15;;;;;;;20.45;45.22;102078.35;1711406;82;21061;-78
2022/10/28 02:29:13;;;;;;;10.20;6.55;;;;;;;20.46;45.23;102079.19;1701984;82;21021;-78
2022/10/28 02:31:49;;;;;;;12.50;6.87;;;;;;;20.44;45.23;102085.02;1716779;83;21076;-79
2022/10/28 02:34:23;;;;;;;8.60;6.17;;;;;;;20.45;45.21;102085.84;1707994;82;21440;-78
2022/10/28 02:36:51;;;;;;;11.12;6.78;;;;;;;20.44;45.20;102082.80;1694420;83;21017;-79
2022/10/28 02:39:21;;;;;;;12.73;6.58;;;;;;;20.46;45.21;102088.86;1710013;83;21104;-79
2022/10/28 02:41:58;;;;;;;10.65;6.90;;;;;;;20.44;45.23;102092.48;1693935;82;21112;-78
2022/10/28 02:44:30;;;;;;;9.38;6.40;;;;;;;20.45;45.22;102094.94;1695216;82;21143;-78
2022/10/28 02:46:59;;;;;;;10.80;6.58;;;;;;;20.45;45.24;102096.32;1706793;82;21352;-78
2022/10/28 02:49:25;;;;;;;10.13;6.40;;;;;;;20.45;45.22;102094.14;1716962;82;21052;-78
2022/10/28 02:52:02;;;;;;;14.30;6.55;;;;;;;20.46;45.17;102090.24;1717193;81;21034;-79
2022/10/28 02:54:45;;;;;;;11.80;6.90;;;;;;;20.46;45.18;102095.22;1704766;82;21179;-79
2022/10/28 02:57:16;;;;;;;9.58;6.85;;;;;;;20.45;45.19;102092.17;1711485;82;21525;-78
2022/10/28 02:59:43;;;;;;;11.43;6.60;;;;;;;20.45;45.17;102094.14;1710691;82;21247;-78
2022/10/28 03:02:14;;;;;;;10.08;6.42;;;;;;;20.45;45.17;102098.29;1705578;82;21088;-79
2022/10/28 03:04:41;;;;;;;8.40;6.05;;;;;;;20.46;45.18;102103.51;1698462;82;21066;-79
2022/10/28 03:07:07;;;;;;;9.95;6.62;;;;;;;20.46;45.15;102104.89;1705086;82;21041;-79
2022/10/28 03:09:34;;;;;;;10.60;5.92;;;;;;;20.45;45.14;102099.09;1712399;82;20994;-78
2022/10/28 03:12:00;;;;;;;9.85;6.12;;;;;;;20.46;45.14;102111.80;1707284;83;21117;-79
2022/10/28 03:14:26;;;;;;;9.78;6.50;;;;;;;20.47;45.16;102109.88;1702881;83;21041;-78
2022/10/28 03:16:53;;;;;;;14.35;6.55;;;;;;;20.45;45.17;102110.73;1707457;83;21033;-79
2022/10/28 03:19:19;;;;;;;10.08;5.87;;;;;;;20.46;45.16;102111.80;1700925;83;21017;-79
2022/10/28 03:21:45;;;;;;;11.20;6.25;;;;;;;20.46;45.15;102115.95;1700054;83;21397;-79
2022/10/28 03:24:11;;;;;;;8.35;6.05;;;;;;;20.46;45.11;102114.56;1701450;83;21328;-78
2022/10/28 03:26:38;;;;;;;11.83;6.87;;;;;;;20.46;45.15;102111.80;1706914;82;21060;-79
2022/10/28 03:29:04;;;;;;;8.85;6.42;;;;;;;20.46;45.11;102113.19;1710505;82;21593;-78
2022/10/28 03:31:30;;;;;;;11.18;5.90;;;;;;;20.46;45.12;102109.59;1705277;82;20965;-78
2022/10/28 03:33:57;;;;;;;9.53;6.42;;;;;;;20.46;45.11;102116.50;1702426;82;21059;-78
2022/10/28 03:36:23;;;;;;;9.70;6.33;;;;;;;20.46;45.10;102118.72;1714426;82;21172;-78
2022/10/28 03:38:49;;;;;;;9.53;6.17;;;;;;;20.46;45.14;102120.66;1717166;82;21026;-78
2022/10/28 03:41:16;;;;;;;9.18;6.05;;;;;;;20.46;45.09;102124.24;1717676;82;21049;-78
2022/10/28 03:43:42;;;;;;;9.85;6.90;;;;;;;20.46;45.07;102117.89;1699993;81;21699;-78
2022/10/28 03:46:09;;;;;;;9.35;6.40;;;;;;;20.45;45.09;102120.41;1712635;83;21100;-79
2022/10/28 03:48:41;;;;;;;9.90;5.78;;;;;;;20.44;45.06;102123.72;1703887;83;21801;-79
2022/10/28 03:51:07;;;;;;;11.25;6.03;;;;;;;20.44;45.06;102120.95;1697311;82;21164;-78
2022/10/28 03:53:33;;;;;;;9.30;6.20;;;;;;;20.44;45.03;102119.58;1693588;83;21028;-79
2022/10/28 03:56:00;;;;;;;8.50;6.15;;;;;;;20.44;44.99;102118.19;1704451;83;21022;-79
2022/10/28 03:58:27;;;;;;;9.53;5.78;;;;;;;20.45;45.01;102124.55;1695692;83;21538;-78
2022/10/28 04:00:53;;;;;;;8.80;5.83;;;;;;;20.45;45.03;102119.02;1684454;82;21507;-79
2022/10/28 04:03:21;;;;;;;10.40;6.47;;;;;;;20.44;45.02;102118.19;1708244;83;21009;-79
2022/10/28 04:05:47;;;;;;;9.68;6.10;;;;;;;20.43;45.06;102115.15;1711881;83;20994;-79
2022/10/28 04:08:14;;;;;;;9.33;6.03;;;;;;;20.44;45.04;102120.12;1712580;83;21071;-78
2022/10/28 04:10:42;;;;;;;8.28;5.53;;;;;;;20.44;45.02;102120.95;1709398;83;21055;-78
2022/10/28 04:13:09;;;;;;;9.05;6.08;;;;;;;20.44;44.98;102120.12;1704219;83;21122;-78
2022/10/28 04:15:35;;;;;;;8.78;6.22;;;;;;;20.44;44.98;102121.50;1709370;83;21519;-78
2022/10/28 04:18:01;;;;;;;9.35;5.78;;;;;;;20.43;44.99;102111.55;1697419;82;20977;-78
2022/10/28 04:20:28;;;;;;;8.93;5.83;;;;;;;20.44;44.98;102117.36;1696955;83;21001;-78
2022/10/28 04:22:54;;;;;;;11.63;6.78;;;;;;;20.43;45.00;102117.91;1694519;83;20985;-78
2022/10/28 04:25:21;;;;;;;9.98;6.33;;;;;;;20.43;45.00;102111.55;1685175;82;21654;-78
2022/10/28 04:27:47;;;;;;;8.90;5.95;;;;;;;20.43;44.99;102114.31;1671546;84;21013;-79
2022/10/28 04:30:14;;;;;;;9.98;6.15;;;;;;;20.43;44.97;102108.79;1609650;87;21101;-80
2022/10/28 04:32:41;;;;;;;8.38;6.10;;;;;;;20.42;44.98;102118.19;1668115;84;21071;-80
2022/10/28 04:35:08;;;;;;;9.58;6.08;;;;;;;20.42;44.97;102120.95;1630852;86;21108;-79
2022/10/28 04:37:34;;;;;;;9.83;6.00;;;;;;;20.42;44.94;102118.19;1663521;84;21226;-79
2022/10/28 04:40:01;;;;;;;9.73;5.87;;;;;;;20.42;44.94;102118.19;1631186;86;21049;-78
2022/10/28 04:42:27;;;;;;;8.68;5.80;;;;;;;20.41;44.90;102121.50;1668156;84;21083;-79
2022/10/28 04:44:53;;;;;;;7.28;5.30;;;;;;;20.42;44.90;102120.95;1701597;83;21484;-79
2022/10/28 04:47:20;;;;;;;8.70;5.90;;;;;;;20.42;44.92;102125.09;1715523;81;21052;-79
2022/10/28 04:49:46;;;;;;;9.20;5.78;;;;;;;20.40;44.93;102126.78;1720104;81;21130;-79
2022/10/28 04:52:12;;;;;;;9.43;5.53;;;;;;;20.40;44.97;102128.16;1747437;80;21033;-78
2022/10/28 04:54:39;;;;;;;8.30;5.55;;;;;;;20.41;44.93;102129.80;1742807;80;21112;-78
2022/10/28 04:57:05;;;;;;;7.92;5.70;;;;;;;20.40;44.90;102125.40;1714876;82;21278;-78
2022/10/28 04:59:37;;;;;;;8.50;5.37;;;;;;;20.42;44.91;102129.24;1705666;83;21133;-78
2022/10/28 05:02:04;;;;;;;7.80;5.47;;;;;;;20.41;44.87;102130.38;1724413;81;21098;-78
2022/10/28 05:04:30;;;;;;;8.00;5.33;;;;;;;20.42;44.86;102132.01;1746522;80;21016;-78
2022/10/28 05:06:56;;;;;;;8.33;5.90;;;;;;;20.41;44.87;102135.32;1736372;80;21302;-79
2022/10/28 05:09:23;;;;;;;10.95;5.92;;;;;;;20.41;44.89;102133.14;1727936;81;21121;-79
2022/10/28 05:11:49;;;;;;;9.88;5.70;;;;;;;20.40;44.88;102136.45;1707495;81;21040;-79
2022/10/28 05:14:16;;;;;;;8.35;5.62;;;;;;;20.41;44.89;102137.29;1684312;83;21094;-79
2022/10/28 05:16:42;;;;;;;11.08;5.90;;;;;;;20.40;44.88;102130.93;1685754;81;21566;-79
2022/10/28 05:19:09;;;;;;;10.20;5.90;;;;;;;20.40;44.88;102137.02;1703302;81;21096;-78
2022/10/28 05:21:35;;;;;;;11.15;6.10;;;;;;;20.40;44.85;102138.39;1702810;81;21175;-78
2022/10/28 05:24:01;;;;;;;9.23;6.12;;;;;;;20.39;44.83;102143.64;1692468;81;21062;-78
2022/10/28 05:26:28;;;;;;;8.33;5.85;;;;;;;20.40;44.78;102140.61;1705712;83;21132;-78
2022/10/28 05:28:54;;;;;;;10.55;6.03;;;;;;;20.40;44.79;102144.75;1697306;81;21314;-79
2022/10/28 05:31:26;;;;;;;7.97;5.50;;;;;;;20.40;44.83;102144.75;1713550;81;21096;-78
2022/10/28 05:33:52;;;;;;;10.60;5.97;;;;;;;20.42;44.83;102145.83;1722521;81;21139;-78
2022/10/28 05:36:19;;;;;;;10.20;5.80;;;;;;;20.44;44.84;102147.77;1672801;83;21076;-78
2022/10/28 05:38:45;;;;;;;8.88;5.80;;;;;;;20.47;44.81;102156.31;1721480;81;21194;-78
2022/10/28 05:41:11;;;;;;;9.55;5.90;;;;;;;20.51;44.75;102162.93;1706646;82;21681;-78
2022/10/28 05:43:37;;;;;;;9.58;6.05;;;;;;;20.56;44.69;102157.09;1711837;82;21502;-78
2022/10/28 05:46:04;;;;;;;9.40;5.75;;;;;;;20.62;44.65;102157.36;1704394;81;21163;-78
2022/10/28 05:48:30;;;;;;;9.60;5.67;;;;;;;20.69;44.57;102164.22;1702251;81;21103;-79
2022/10/28 05:50:56;;;;;;;8.43;5.80;;;;;;;20.76;44.50;102159.73;1711526;81;21152;-78
2022/10/28 05:53:23;;;;;;;8.05;5.62;;;;;;;20.83;44.43;102159.72;1689098;81;21057;-79
2022/10/28 05:55:49;;;;;;;8.10;5.60;;;;;;;20.91;44.35;102156.89;1703485;81;21061;-78
2022/10/28 05:58:16;;;;;;;10.90;5.45;;;;;;;20.98;44.25;102158.22;1687292;83;21626;-78
2022/10/28 06:00:42;;;;;;;8.90;5.20;;;;;;;21.08;44.16;102164.23;1673011;83;21129;-78
2022/10/28 06:03:16;;;;;;;7.70;5.20;;;;;;;21.17;44.13;102158.95;1706614;81;21442;-79
2022/10/28 06:05:43;;;;;;;10.58;5.50;;;;;;;21.25;44.08;102160.54;1702510;82;21159;-79
2022/10/28 06:08:11;;;;;;;12.05;5.83;;;;;;;21.32;43.92;102158.81;1710441;81;21120;-78
2022/10/28 06:10:38;;;;;;;9.28;5.17;;;;;;;21.40;43.78;102164.55;1719457;81;21033;-78
2022/10/28 06:13:10;;;;;;;9.30;5.12;;;;;;;21.50;43.61;102166.41;1715358;81;21116;-78
2022/10/28 06:15:37;;;;;;;11.28;5.47;;;;;;;21.62;43.50;102176.53;1702495;81;21026;-79
2022/10/28 06:18:03;;;;;;;8.95;5.22;;;;;;;21.72;43.39;102181.16;1685385;81;21096;-78
2022/10/28 06:20:30;;;;;;;10.30;5.05;;;;;;;21.80;43.33;102184.12;1699633;81;21661;-78
2022/10/28 06:22:56;;;;;;;10.43;5.53;;;;;;;21.89;43.26;102178.77;1703645;82;21485;-78
2022/10/28 06:25:23;;;;;;;16.42;6.10;;;;;;;21.98;43.18;102185.32;1692248;83;21067;-78
2022/10/28 06:27:55;;;;;;;14.38;5.87;;;;;;;22.06;43.11;102188.86;1686700;83;22013;-78
2022/10/28 06:30:22;;;;;;;12.78;6.00;;;;;;;22.11;43.06;102187.95;1695998;81;21110;-78
2022/10/28 06:32:48;;;;;;;12.60;6.10;;;;;;;22.14;43.04;102188.21;1688433;82;22058;-77
2022/10/28 06:35:15;;;;;;;17.48;6.22;;;;;;;22.18;43.05;102181.52;1704138;81;21087;-78
2022/10/28 06:37:41;;;;;;;14.85;6.37;;;;;;;22.20;43.02;102183.41;1698315;81;21502;-78
2022/10/28 06:40:08;;;;;;;22.70;6.97;;;;;;;22.21;43.04;102184.52;1678469;83;21904;-77
2022/10/28 06:42:35;;;;;;;16.97;6.53;;;;;;;22.22;43.04;102180.62;1698220;81;20944;-79
2022/10/28 06:45:01;;;;;;;20.15;6.40;;;;;;;22.24;43.05;102185.86;1704536;81;21084;-78
2022/10/28 06:47:27;;;;;;;16.57;6.65;;;;;;;22.24;43.02;102190.02;1640863;85;21038;-78
2022/10/28 06:49:53;;;;;;;24.02;7.67;;;;;;;22.21;42.90;102178.14;1681603;83;21092;-78
2022/10/28 06:52:19;;;;;;;19.48;6.12;;;;;;;22.19;42.81;102190.90;1686371;83;21102;-78
2022/10/28 06:54:46;;;;;;;20.23;6.83;;;;;;;22.16;42.86;102191.50;1694775;82;21024;-77
2022/10/28 06:57:12;;;;;;;15.95;6.72;;;;;;;22.13;42.83;102190.71;1688213;82;21783;-78
2022/10/28 06:59:39;;;;;;;17.75;7.03;;;;;;;22.11;42.80;102193.49;1703346;81;21576;-78
2022/10/28 07:02:05;;;;;;;13.90;6.10;;;;;;;22.07;42.81;102188.27;1714268;81;21049;-79
2022/10/28 07:04:32;;;;;;;20.92;7.17;;;;;;;22.02;42.86;102186.41;1706831;81;21172;-80
2022/10/28 07:06:58;;;;;;;18.57;6.62;;;;;;;21.99;42.91;102185.59;1721393;81;21111;-79
2022/10/28 07:09:25;;;;;;;12.33;5.87;;;;;;;21.96;43.00;102186.19;1694723;81;22286;-79
2022/10/28 07:11:51;;;;;;;21.40;6.40;;;;;;;21.95;43.07;102185.92;1717240;81;21568;-79
2022/10/28 07:14:17;;;;;;;17.95;6.67;;;;;;;21.95;43.18;102190.63;1728752;81;21072;-79
2022/10/28 07:16:44;;;;;;;21.23;6.78;;;;;;;21.94;43.28;102191.77;1710199;81;21103;-79
2022/10/28 07:19:10;;;;;;;20.30;7.17;;;;;;;21.94;43.47;102192.58;1721940;80;21059;-78
2022/10/28 07:21:36;;;;;;;16.12;6.58;;;;;;;21.93;43.73;102189.56;1720360;81;21108;-78
2022/10/28 07:24:03;;;;;;;22.93;7.12;;;;;;;21.94;43.93;102193.16;1715245;81;21566;-78
2022/10/28 07:26:29;;;;;;;26.00;8.28;;;;;;;21.93;44.15;102192.33;1722695;81;21594;-78
2022/10/28 07:28:55;;;;;;;28.75;7.53;;;;;;;21.92;44.33;102195.35;1716483;80;21883;-78
2022/10/28 07:31:22;;;;;;;35.80;7.55;;;;;;;21.90;44.50;102192.06;1735256;80;21028;-78
2022/10/28 07:33:53;;;;;;;30.70;8.00;;;;;;;21.87;44.63;102190.13;1711654;81;21179;-78
2022/10/28 07:36:20;;;;;;;28.15;8.10;;;;;;;21.86;44.77;102187.09;1710881;81;21949;-78
2022/10/28 07:38:50;;;;;;;28.55;7.10;;;;;;;21.84;44.91;102187.13;1715731;81;21530;-79
2022/10/28 07:41:25;;;;;;;29.85;7.15;;;;;;;21.80;45.04;102186.89;1710166;81;21201;-78
2022/10/28 07:43:52;;;;;;;21.57;7.15;;;;;;;21.77;45.20;102187.45;1673769;83;21168;-78
2022/10/28 07:46:18;;;;;;;21.00;7.75;;;;;;;21.75;45.30;102187.48;1690105;83;21061;-78
2022/10/28 07:48:45;;;;;;;20.43;6.42;;;;;;;21.72;45.40;102184.75;1706636;81;21490;-79
2022/10/28 07:51:13;;;;;;;12.78;6.50;;;;;;;21.69;45.48;102180.33;1691122;82;21916;-78
2022/10/28 07:53:40;;;;;;;19.32;6.92;;;;;;;21.68;45.53;102185.63;1643271;84;21168;-78
2022/10/28 07:56:12;;;;;;;17.77;6.25;;;;;;;21.64;45.56;102181.80;1674816;83;20999;-78
2022/10/28 07:58:39;;;;;;;17.27;6.53;;;;;;;21.64;45.56;102184.56;1705841;83;21111;-78
2022/10/28 08:01:09;;;;;;;12.33;7.28;;;;;;;21.61;45.57;102184.56;1711031;83;21427;-78
2022/10/28 08:03:41;;;;;;;12.47;5.90;;;;;;;21.59;45.57;102183.22;1712204;81;21079;-78
2022/10/28 08:06:16;;;;;;;16.97;6.05;;;;;;;21.56;45.55;102183.22;1710033;81;21858;-79
2022/10/28 08:08:42;;;;;;;16.80;5.87;;;;;;;21.55;45.56;102187.13;1713487;82;21105;-79
2022/10/28 08:11:14;;;;;;;18.12;6.67;;;;;;;21.54;45.62;102183.26;1712587;80;21147;-81
2022/10/28 08:13:40;;;;;;;13.05;6.03;;;;;;;21.52;45.69;102178.00;1701636;81;21785;-79
2022/10/28 08:16:07;;;;;;;12.05;6.05;;;;;;;21.50;45.78;102180.25;1716777;81;21107;-81
2022/10/28 08:18:37;;;;;;;14.38;6.42;;;;;;;21.49;45.87;102193.82;1712482;81;22232;-79
2022/10/28 08:21:05;;;;;;;15.45;6.53;;;;;;;21.47;45.93;102186.37;1713225;80;21093;-80
2022/10/28 08:23:31;;;;;;;12.70;6.40;;;;;;;21.46;46.00;102185.28;1728197;80;21185;-81
2022/10/28 08:25:57;;;;;;;10.93;6.20;;;;;;;21.44;45.96;102189.70;1663472;84;21047;-79
2022/10/28 08:28:24;;;;;;;10.38;5.85;;;;;;;21.43;45.92;102187.25;1717592;81;21112;-79
2022/10/28 08:30:50;;;;;;;14.03;6.65;;;;;;;21.40;45.84;102188.08;1704070;82;22489;-79
2022/10/28 08:33:16;;;;;;;9.58;6.20;;;;;;;21.39;45.78;102188.36;1712378;82;21118;-79
2022/10/28 08:35:51;;;;;;;11.12;6.03;;;;;;;21.37;45.73;102184.52;1674778;83;21037;-80
2022/10/28 08:38:17;;;;;;;14.73;6.58;;;;;;;21.36;45.67;102184.80;1683884;82;21079;-79
2022/10/28 08:40:55;;;;;;;10.72;5.62;;;;;;;21.34;45.59;102187.84;1714322;81;21021;-79
2022/10/28 08:43:44;;;;;;;12.20;6.22;;;;;;;21.34;45.51;102187.05;1710862;81;21176;-80
2022/10/28 08:46:51;;;;;;;12.37;5.95;;;;;;;21.32;45.44;102189.26;1647805;84;21115;-79
2022/10/28 08:49:20;;;;;;;10.20;5.15;;;;;;;21.29;45.34;102182.92;1693252;81;21214;-79
2022/10/28 08:52:14;;;;;;;12.58;6.70;;;;;;;21.26;45.26;102186.28;1700224;83;21065;-79
2022/10/28 08:54:52;;;;;;;15.50;5.25;;;;;;;21.24;45.19;102181.58;1695122;81;21119;-80
2022/10/28 08:57:39;;;;;;;15.15;5.83;;;;;;;21.23;45.10;102186.84;1697421;82;21818;-80
2022/10/28 09:00:08;;;;;;;13.25;5.80;;;;;;;21.20;45.02;102180.50;1688387;82;21162;-79
2022/10/28 09:02:52;;;;;;;9.90;5.15;;;;;;;21.19;45.00;102180.22;1709887;80;21072;-79
2022/10/28 09:05:25;;;;;;;11.50;5.70;;;;;;;21.20;44.94;102179.13;1693934;81;21127;-80
2022/10/28 09:07:51;;;;;;;10.03;5.83;;;;;;;21.19;44.87;102175.52;1702323;80;21107;-80
2022/10/28 09:10:38;;;;;;;13.72;5.58;;;;;;;21.18;44.83;102173.86;1704454;81;21100;-79
2022/10/28 09:13:12;;;;;;;11.57;5.58;;;;;;;21.18;44.80;102172.48;1707341;81;21140;-79
2022/10/28 09:16:13;;;;;;;9.88;5.40;;;;;;;21.19;44.78;102173.30;1686516;81;21056;-82
2022/10/28 09:18:52;;;;;;;11.12;5.78;;;;;;;21.19;44.74;102171.92;1727984;80;21088;-80
2022/10/28 09:21:26;;;;;;;14.33;5.87;;;;;;;21.19;44.71;102165.00;1725493;81;21627;-79
2022/10/28 09:23:56;;;;;;;10.63;5.15;;;;;;;21.19;44.66;102156.70;1722376;82;21405;-78
2022/10/28 09:26:43;;;;;;;;;;;;;;;21.19;44.63;102153.93;1656128;84;21741;-78
2022/10/28 09:29:30;;;;;;;9.00;4.40;;;;;;;21.18;44.52;102151.72;1654921;85;20226;-78
2022/10/28 09:32:40;;;;;;;10.25;5.17;;;;;;;21.16;44.59;102147.60;1654437;86;21096;-77
2022/10/28 09:35:13;;;;;;;9.15;4.78;;;;;;;21.16;44.54;102153.14;1731008;80;21101;-78
2022/10/28 09:37:54;;;;;;;9.65;5.28;;;;;;;21.15;44.55;102138.47;1729670;81;21166;-77
2022/10/28 09:40:26;;;;;;;13.20;5.12;;;;;;;21.15;44.53;102139.02;1740721;80;21087;-78
2022/10/28 09:43:19;;;;;;;12.98;4.95;;;;;;;21.15;44.48;102131.55;1746601;80;21116;-78
2022/10/28 09:45:46;;;;;;;8.65;4.80;;;;;;;21.14;44.47;102136.81;1746913;80;21777;-80
2022/10/28 09:48:26;;;;;;;11.35;6.12;;;;;;;21.14;44.43;102129.06;1737665;80;21079;-78
2022/10/28 09:50:54;;;;;;;10.72;5.42;;;;;;;21.13;44.41;102128.23;1698823;83;21174;-77
2022/10/28 09:53:32;;;;;;;10.70;5.50;;;;;;;21.14;44.41;102124.91;1686697;82;21143;-78
2022/10/28 09:55:58;;;;;;;6.72;4.90;;;;;;;21.13;44.41;102129.61;1702021;82;21045;-77
2022/10/28 09:58:25;;;;;;;10.58;5.10;;;;;;;21.13;44.41;102119.13;1700709;83;21114;-78
2022/10/28 10:00:51;;;;;;;9.65;4.92;;;;;;;21.13;44.37;102114.98;1687245;82;21076;-78
2022/10/28 10:03:17;;;;;;;8.40;5.25;;;;;;;21.13;44.37;102116.36;1707593;81;21934;-77
2022/10/28 10:05:47;;;;;;;7.95;5.25;;;;;;;21.12;44.40;102111.91;1696856;82;21641;-78
2022/10/28 10:08:15;;;;;;;10.40;5.55;;;;;;;21.12;44.40;102113.28;1663853;83;21462;-77
2022/10/28 10:11:08;;;;;;;9.85;5.00;;;;;;;21.10;44.37;102115.50;1677325;82;21057;-78
2022/10/28 10:13:37;;;;;;;10.32;5.00;;;;;;;21.10;44.35;102112.73;1712065;81;21059;-78
2022/10/28 10:16:38;;;;;;;11.35;5.35;;;;;;;21.09;44.32;102110.52;1693406;82;21139;-80
2022/10/28 10:19:06;;;;;;;10.72;4.92;;;;;;;21.08;44.32;102110.28;1672171;82;21079;-79
2022/10/28 10:21:49;;;;;;;9.65;5.10;;;;;;;21.06;44.30;102102.81;1662011;84;21185;-78
2022/10/28 10:24:25;;;;;;;10.03;5.05;;;;;;;21.06;44.29;102104.75;1674870;83;21540;-78
2022/10/28 10:26:51;;;;;;;10.05;5.60;;;;;;;21.04;44.27;102100.91;1696511;82;21135;-79
2022/10/28 10:29:18;;;;;;;8.70;5.35;;;;;;;21.05;44.27;102101.73;1688546;83;22006;-78
2022/10/28 10:31:44;;;;;;;7.40;4.85;;;;;;;21.04;44.31;102098.69;1692671;82;21049;-78
2022/10/28 10:34:23;;;;;;;11.50;5.55;;;;;;;21.03;44.28;102096.48;1693088;81;21648;-77
2022/10/28 10:36:51;;;;;;;10.13;5.33;;;;;;;21.03;44.27;102091.50;1694099;82;21716;-78
2022/10/28 10:39:31;;;;;;;9.58;5.17;;;;;;;21.01;44.23;102089.02;1689796;81;21070;-77
2022/10/28 10:41:57;;;;;;;11.35;5.05;;;;;;;21.00;44.20;102081.84;1694351;80;21102;-78
2022/10/28 10:44:32;;;;;;;8.35;4.85;;;;;;;21.00;44.15;102089.32;1710142;81;21032;-77
2022/10/28 10:47:04;;;;;;;7.50;4.92;;;;;;;21.00;44.10;102082.41;1715568;82;21201;-78
2022/10/28 10:49:31;;;;;;;7.25;4.25;;;;;;;21.00;44.08;102086.55;1714636;81;21162;-78
2022/10/28 10:52:12;;;;;;;9.93;5.00;;;;;;;21.00;44.06;102072.16;1657396;83;21602;-78
2022/10/28 10:54:38;;;;;;;9.73;4.58;;;;;;;21.01;44.03;102073.80;1734300;80;21367;-78
2022/10/28 10:57:08;;;;;;;9.30;4.83;;;;;;;21.01;44.03;102073.80;1700202;82;21630;-79
2022/10/28 10:59:36;;;;;;;7.10;4.42;;;;;;;21.02;44.03;102070.47;1663828;83;21128;-78
2022/10/28 11:02:02;;;;;;;11.28;4.83;;;;;;;21.03;44.05;102074.90;1680785;83;21061;-79
2022/10/28 11:04:29;;;;;;;11.25;4.78;;;;;;;21.02;44.05;102069.92;1705408;82;21072;-78
2022/10/28 11:06:56;;;;;;;7.53;4.50;;;;;;;21.03;44.06;102066.59;1714929;81;21163;-78
2022/10/28 11:09:37;;;;;;;9.15;4.90;;;;;;;21.02;44.08;102067.15;1691552;82;21025;-79
2022/10/28 11:12:29;;;;;;;10.60;5.97;;;;;;;21.02;44.10;102061.62;1678408;81;21100;-78
2022/10/28 11:15:01;;;;;;;7.65;4.58;;;;;;;21.02;44.15;102062.17;1703440;81;21310;-78
2022/10/28 11:17:32;;;;;;;8.65;4.67;;;;;;;21.02;44.19;102058.02;1711919;82;21082;-79
2022/10/28 11:20:02;;;;;;;6.37;4.35;;;;;;;21.03;44.19;102058.30;1717417;81;21136;-78
2022/10/28 11:22:46;;;;;;;10.25;4.97;;;;;;;21.03;44.22;102052.77;1693233;81;21108;-78
2022/10/28 11:25:35;;;;;;;7.60;4.90;;;;;;;21.03;44.23;102052.77;1707002;81;21630;-78
2022/10/28 11:28:16;;;;;;;8.58;4.80;;;;;;;21.02;44.22;102049.16;1719342;83;21170;-78
2022/10/28 11:31:02;;;;;;;;;;;;;;;21.02;44.21;102051.94;1700551;82;21087;-78
2022/10/28 11:33:57;;;;;;;8.50;5.12;;;;;;;21.01;44.22;102043.91;1717319;82;21858;-78
2022/10/28 11:36:50;;;;;;;6.97;4.87;;;;;;;21.00;44.23;102038.97;1692725;81;21048;-78
2022/10/28 11:39:31;;;;;;;8.35;4.92;;;;;;;20.98;44.21;102039.24;1664923;83;21024;-78
2022/10/28 11:42:35;;;;;;;9.38;4.92;;;;;;;20.98;44.24;102037.86;1698279;81;21566;-78
2022/10/28 11:45:28;;;;;;;9.35;5.20;;;;;;;20.99;44.22;102026.23;1684860;83;21568;-78